Time;durP1;ratioP1;P1;durP2;ratioP2;P2;SDS_P1;SDS_P2;PMS_P1;PMS_P2;Temp;Humidity;BMP_temperature;BMP_pressure;BME280_temperature;BME280_humidity;BME280_pressure;Samples;Min_cycle;Max_cycle;Signal;HPM_P1;HPM_P2
2021/03/29 00:00:18;;;;;;;26.42;24.92;;;8.70;67.60;;;;;;5094219;28;20211;-78
2021/03/29 00:02:45;;;;;;;26.73;24.88;;;8.70;67.40;;;;;;5094100;28;20605;-78
2021/03/29 00:05:13;;;;;;;26.10;24.40;;;8.70;68.90;;;;;;5094411;28;20694;-78
2021/03/29 00:07:42;;;;;;;26.38;24.70;;;8.70;67.80;;;;;;5093819;28;20192;-78
2021/03/29 00:10:10;;;;;;;26.10;24.48;;;8.70;67.30;;;;;;5093841;28;20219;-78
2021/03/29 00:12:39;;;;;;;26.08;24.52;;;8.70;67.50;;;;;;5094117;28;20309;-79
2021/03/29 00:15:08;;;;;;;26.52;24.85;;;8.70;68.10;;;;;;5094186;28;20195;-79
2021/03/29 00:17:35;;;;;;;25.52;23.98;;;8.70;68.50;;;;;;5093517;28;20203;-78
2021/03/29 00:20:06;;;;;;;26.10;24.50;;;8.70;67.60;;;;;;5093758;28;20222;-78
2021/03/29 00:22:32;;;;;;;26.40;24.75;;;8.80;67.70;;;;;;5094172;28;20195;-78
2021/03/29 00:24:59;;;;;;;28.60;26.65;;;8.80;67.10;;;;;;5093883;28;20203;-80
2021/03/29 00:27:25;;;;;;;25.55;23.80;;;8.80;66.30;;;;;;5093101;28;20207;-78
2021/03/29 00:29:52;;;;;;;25.45;23.65;;;8.80;66.60;;;;;;5093766;28;20309;-78
2021/03/29 00:32:19;;;;;;;26.70;24.52;;;8.80;66.10;;;;;;5093650;28;20209;-79
2021/03/29 00:34:46;;;;;;;25.93;24.47;;;9.00;66.00;;;;;;5071784;28;623506;-78
2021/03/29 00:37:12;;;;;;;25.50;23.90;;;9.00;65.30;;;;;;5094248;28;20461;-78
2021/03/29 00:39:40;;;;;;;25.70;24.20;;;9.00;65.40;;;;;;5094699;28;20226;-79
2021/03/29 00:42:07;;;;;;;25.63;23.98;;;9.00;65.30;;;;;;5095183;28;20716;-78
2021/03/29 00:44:35;;;;;;;25.63;24.13;;;8.90;65.50;;;;;;5094851;28;20191;-78
2021/03/29 00:47:03;;;;;;;25.08;23.67;;;9.00;65.40;;;;;;5094093;28;20252;-78
2021/03/29 00:49:30;;;;;;;25.02;23.52;;;8.90;65.50;;;;;;5094353;28;20232;-78
2021/03/29 00:51:57;;;;;;;25.45;23.42;;;8.90;66.80;;;;;;5094508;28;20195;-78
2021/03/29 00:54:24;;;;;;;26.00;24.33;;;8.90;65.90;;;;;;5094333;28;20290;-78
2021/03/29 00:56:51;;;;;;;25.17;23.77;;;8.90;65.40;;;;;;5093874;28;20332;-78
2021/03/29 00:59:19;;;;;;;25.50;23.70;;;8.80;65.50;;;;;;5093837;28;20226;-78
2021/03/29 01:01:47;;;;;;;25.63;24.20;;;8.80;65.40;;;;;;5094179;28;20236;-78
2021/03/29 01:04:15;;;;;;;25.77;24.13;;;8.90;66.30;;;;;;5093993;28;20255;-78
2021/03/29 01:06:44;;;;;;;25.30;23.60;;;8.80;69.60;;;;;;5093325;28;20195;-78
2021/03/29 01:09:15;;;;;;;24.70;23.10;;;8.80;66.80;;;;;;5093617;28;20219;-78
2021/03/29 01:11:45;;;;;;;27.30;25.02;;;8.80;65.90;;;;;;5094038;28;20199;-78
2021/03/29 01:14:15;;;;;;;25.40;23.80;;;8.80;65.60;;;;;;5093292;28;20195;-78
2021/03/29 01:16:45;;;;;;;24.73;23.23;;;8.80;65.70;;;;;;5093362;28;20289;-78
2021/03/29 01:19:16;;;;;;;26.60;24.50;;;8.80;66.10;;;;;;5093889;28;20230;-78
2021/03/29 01:21:57;;;;;;;24.75;23.27;;;8.80;67.70;;;;;;5093769;28;20533;-78
2021/03/29 01:24:29;;;;;;;26.20;24.70;;;8.80;65.80;;;;;;5094011;28;20644;-78
2021/03/29 01:26:57;;;;;;;25.80;24.20;;;8.70;65.60;;;;;;5093421;28;20199;-78
2021/03/29 01:29:30;;;;;;;25.45;23.65;;;8.80;65.20;;;;;;5101636;28;20219;-78
2021/03/29 01:32:00;;;;;;;26.25;24.55;;;8.80;65.10;;;;;;5095121;28;20195;-77
2021/03/29 01:34:28;;;;;;;25.92;24.10;;;8.70;65.60;;;;;;5093577;28;20195;-77
2021/03/29 01:36:55;;;;;;;25.38;23.50;;;8.70;65.10;;;;;;5093165;28;20195;-78
2021/03/29 01:39:23;;;;;;;25.88;24.30;;;8.70;65.10;;;;;;5093413;28;20223;-78
2021/03/29 01:41:51;;;;;;;25.25;23.85;;;8.60;65.10;;;;;;5093364;28;20206;-78
2021/03/29 01:44:19;;;;;;;24.65;23.25;;;8.60;64.90;;;;;;5093350;28;20191;-77
2021/03/29 01:46:46;;;;;;;25.40;23.90;;;8.60;65.90;;;;;;5092761;28;20200;-78
2021/03/29 01:49:13;;;;;;;25.27;23.70;;;8.60;65.40;;;;;;5093237;28;20230;-78
2021/03/29 01:51:40;;;;;;;25.88;24.02;;;8.70;65.00;;;;;;5093674;28;20199;-78
2021/03/29 01:54:07;;;;;;;25.10;23.60;;;8.60;65.10;;;;;;5093438;28;20195;-78
2021/03/29 01:56:33;;;;;;;24.38;23.08;;;8.50;65.10;;;;;;5092759;28;20195;-78
2021/03/29 01:59:00;;;;;;;25.55;24.05;;;8.50;65.40;;;;;;5092981;28;20714;-79
2021/03/29 02:01:27;;;;;;;26.90;25.40;;;8.60;65.10;;;;;;5108420;28;20206;-78
2021/03/29 02:03:55;;;;;;;24.85;23.33;;;8.50;65.90;;;;;;5108597;28;20253;-78
2021/03/29 02:06:21;;;;;;;25.10;23.58;;;8.40;67.30;;;;;;5093408;28;20222;-77
2021/03/29 02:08:49;;;;;;;24.50;23.10;;;8.40;65.80;;;;;;5094353;28;20195;-77
2021/03/29 02:11:18;;;;;;;24.70;23.10;;;8.50;65.50;;;;;;5093361;28;20215;-77
2021/03/29 02:13:49;;;;;;;26.02;24.42;;;8.40;65.50;;;;;;5092946;28;20229;-78
2021/03/29 02:16:16;;;;;;;25.27;23.85;;;8.40;66.00;;;;;;5092147;28;20665;-77
2021/03/29 02:18:45;;;;;;;25.50;23.80;;;8.40;65.90;;;;;;5092766;28;20255;-77
2021/03/29 02:21:15;;;;;;;25.17;23.63;;;8.40;67.00;;;;;;5092850;28;20191;-78
2021/03/29 02:23:42;;;;;;;24.73;23.30;;;8.30;66.30;;;;;;5092579;28;20191;-78
2021/03/29 02:26:09;;;;;;;24.90;23.33;;;8.20;66.20;;;;;;5091959;28;20239;-78
2021/03/29 02:28:35;;;;;;;25.70;24.17;;;8.20;66.20;;;;;;5092644;28;20195;-78
2021/03/29 02:31:03;;;;;;;25.13;23.73;;;8.20;66.80;;;;;;5092511;28;20246;-78
2021/03/29 02:33:32;;;;;;;25.02;23.52;;;8.20;66.30;;;;;;5092509;28;20203;-78
2021/03/29 02:36:00;;;;;;;25.70;24.10;;;8.30;66.20;;;;;;5091947;28;20735;-77
2021/03/29 02:38:26;;;;;;;25.27;23.75;;;8.20;66.40;;;;;;5092452;28;20256;-77
2021/03/29 02:40:55;;;;;;;25.15;23.45;;;8.20;66.20;;;;;;5092776;28;20236;-77
2021/03/29 02:43:22;;;;;;;24.52;22.92;;;8.10;66.40;;;;;;5092453;28;20202;-77
2021/03/29 02:45:51;;;;;;;25.30;23.70;;;8.10;66.60;;;;;;5091880;28;20600;-77
2021/03/29 02:48:21;;;;;;;25.98;24.13;;;8.10;66.40;;;;;;5092305;28;20641;-77
2021/03/29 02:50:50;;;;;;;24.90;23.35;;;8.10;67.40;;;;;;5092191;28;20752;-78
2021/03/29 02:53:20;;;;;;;25.27;23.48;;;7.90;67.10;;;;;;5092443;28;20197;-78
2021/03/29 02:55:47;;;;;;;25.95;24.35;;;7.90;67.00;;;;;;5092036;28;20203;-77
2021/03/29 02:58:17;;;;;;;26.52;24.85;;;7.80;66.90;;;;;;5092374;28;20203;-77
2021/03/29 03:00:44;;;;;;;25.70;24.02;;;7.80;67.30;;;;;;5091728;28;20221;-78
2021/03/29 03:03:11;;;;;;;25.50;23.90;;;7.70;69.10;;;;;;5092592;28;20302;-78
2021/03/29 03:05:39;;;;;;;25.00;23.40;;;7.70;69.20;;;;;;5092932;28;20781;-77
2021/03/29 03:08:07;;;;;;;26.15;24.45;;;7.70;69.60;;;;;;5094506;28;20664;-78
2021/03/29 03:10:35;;;;;;;25.15;23.75;;;7.60;68.30;;;;;;5094180;28;20227;-77
2021/03/29 03:13:04;;;;;;;26.42;24.42;;;7.70;67.90;;;;;;5093832;28;20208;-77
2021/03/29 03:15:31;;;;;;;26.80;25.30;;;7.70;67.50;;;;;;5092448;28;20278;-77
2021/03/29 03:18:00;;;;;;;26.70;24.80;;;7.70;67.90;;;;;;5093120;28;20233;-78
2021/03/29 03:20:28;;;;;;;27.23;25.33;;;7.80;67.70;;;;;;5092513;28;20302;-78
2021/03/29 03:22:56;;;;;;;25.90;24.40;;;7.60;68.90;;;;;;5094066;28;20732;-78
2021/03/29 03:25:24;;;;;;;26.60;25.00;;;7.70;68.00;;;;;;5103617;28;20206;-78
2021/03/29 03:27:53;;;;;;;26.48;24.77;;;7.70;67.70;;;;;;5092240;28;20289;-77
2021/03/29 03:30:22;;;;;;;26.88;25.13;;;7.60;67.70;;;;;;5092041;28;20758;-78
2021/03/29 03:32:50;;;;;;;25.20;23.70;;;7.60;67.90;;;;;;5092259;28;20274;-78
2021/03/29 03:35:17;;;;;;;26.38;24.67;;;7.50;72.10;;;;;;5091905;28;20215;-78
2021/03/29 03:37:50;;;;;;;24.65;23.25;;;7.40;72.50;;;;;;5092745;28;20195;-78
2021/03/29 03:40:20;;;;;;;25.80;24.10;;;7.40;69.80;;;;;;5096155;28;20245;-77
2021/03/29 03:42:48;;;;;;;25.48;24.08;;;7.40;69.00;;;;;;5095804;28;20281;-78
2021/03/29 03:45:18;;;;;;;26.00;24.30;;;7.40;68.80;;;;;;5095613;28;20210;-78
2021/03/29 03:47:44;;;;;;;27.23;25.63;;;7.30;69.20;;;;;;5095267;28;20218;-78
2021/03/29 03:50:12;;;;;;;25.45;23.85;;;7.30;70.30;;;;;;5095253;28;20238;-78
2021/03/29 03:52:40;;;;;;;27.10;25.33;;;7.20;69.90;;;;;;5095419;28;20209;-78
2021/03/29 03:55:08;;;;;;;26.27;24.65;;;7.30;69.30;;;;;;5095377;28;20565;-78
2021/03/29 03:57:36;;;;;;;31.95;29.95;;;7.30;68.90;;;;;;5094869;28;20198;-78
2021/03/29 04:00:08;;;;;;;29.95;28.25;;;7.20;69.20;;;;;;5094591;28;20211;-78
2021/03/29 04:02:35;;;;;;;27.52;25.50;;;7.20;69.40;;;;;;5095905;28;20199;-78
2021/03/29 04:05:03;;;;;;;29.70;27.80;;;7.10;71.70;;;;;;5095006;28;20201;-77
2021/03/29 04:07:29;;;;;;;26.25;24.63;;;7.10;78.20;;;;;;5097541;28;20676;-78
2021/03/29 04:10:00;;;;;;;25.33;23.83;;;7.10;73.30;;;;;;5095197;28;20233;-78
2021/03/29 04:12:26;;;;;;;26.67;24.85;;;7.20;70.20;;;;;;5094812;28;20223;-78
2021/03/29 04:14:53;;;;;;;27.38;25.98;;;7.10;69.60;;;;;;5094963;28;20230;-78
2021/03/29 04:17:20;;;;;;;24.63;23.30;;;7.20;69.20;;;;;;5094431;28;20210;-78
2021/03/29 04:19:47;;;;;;;26.90;25.23;;;7.30;71.70;;;;;;5094956;28;20209;-78
2021/03/29 04:22:13;;;;;;;25.58;23.80;;;7.30;69.90;;;;;;5094881;28;20200;-78
2021/03/29 04:24:39;;;;;;;25.52;23.85;;;7.30;68.90;;;;;;5094761;28;20199;-78
2021/03/29 04:27:06;;;;;;;26.20;24.55;;;7.30;68.70;;;;;;5093992;28;20191;-78
2021/03/29 04:29:33;;;;;;;25.58;23.77;;;7.30;68.60;;;;;;5094647;28;20229;-78
2021/03/29 04:31:59;;;;;;;26.73;25.13;;;7.30;68.60;;;;;;5094664;28;20206;-78
2021/03/29 04:34:25;;;;;;;25.42;23.73;;;7.40;70.50;;;;;;5094357;28;20229;-78
2021/03/29 04:36:53;;;;;;;26.63;24.80;;;7.40;68.50;;;;;;5094493;28;20286;-78
2021/03/29 04:39:19;;;;;;;27.05;25.45;;;7.40;70.40;;;;;;5094389;28;20805;-78
2021/03/29 04:41:45;;;;;;;26.80;25.20;;;7.40;68.90;;;;;;5094693;28;20209;-77
2021/03/29 04:44:12;;;;;;;26.42;24.63;;;7.40;68.90;;;;;;5095407;28;20288;-77
2021/03/29 04:46:38;;;;;;;25.20;23.65;;;7.40;68.50;;;;;;5095136;28;20206;-77
2021/03/29 04:49:04;;;;;;;28.25;26.50;;;7.40;69.80;;;;;;5093991;28;20738;-78
2021/03/29 04:51:31;;;;;;;26.17;24.48;;;7.40;68.90;;;;;;5095094;28;20214;-78
2021/03/29 04:53:59;;;;;;;27.77;25.45;;;7.40;69.10;;;;;;5095163;28;20203;-78
2021/03/29 04:56:25;;;;;;;25.80;24.40;;;7.40;68.70;;;;;;5094624;28;20195;-77
2021/03/29 04:58:51;;;;;;;26.77;24.88;;;7.40;68.50;;;;;;5095053;28;20203;-77
2021/03/29 05:01:18;;;;;;;28.75;26.95;;;7.40;68.50;;;;;;5094631;28;20664;-78
2021/03/29 05:03:44;;;;;;;29.58;27.60;;;7.40;68.70;;;;;;5095756;28;20195;-78
2021/03/29 05:06:10;;;;;;;25.48;23.88;;;7.30;68.70;;;;;;5094518;28;20280;-78
2021/03/29 05:08:37;;;;;;;29.20;27.60;;;7.40;68.60;;;;;;5094578;28;20198;-78
2021/03/29 05:11:06;;;;;;;26.63;24.85;;;7.40;68.50;;;;;;5094138;28;20256;-78
2021/03/29 05:13:33;;;;;;;26.42;24.65;;;7.50;68.50;;;;;;5094149;28;20199;-78
2021/03/29 05:15:59;;;;;;;29.30;27.60;;;7.40;68.80;;;;;;5093695;28;20206;-79
2021/03/29 05:18:25;;;;;;;25.05;23.65;;;7.40;69.10;;;;;;5096830;28;20202;-78
2021/03/29 05:20:52;;;;;;;26.70;25.10;;;7.40;72.20;;;;;;5104216;28;20218;-78
2021/03/29 05:23:18;;;;;;;28.65;27.05;;;7.50;71.20;;;;;;5093729;28;20199;-78
2021/03/29 05:25:45;;;;;;;29.75;27.75;;;7.60;71.00;;;;;;5093173;28;20191;-78
2021/03/29 05:28:12;;;;;;;26.55;25.05;;;7.70;69.00;;;;;;5093751;28;20205;-78
2021/03/29 05:30:38;;;;;;;27.80;26.40;;;7.70;68.30;;;;;;5093391;28;20219;-78
2021/03/29 05:33:05;;;;;;;26.27;24.65;;;7.80;67.70;;;;;;5093517;28;20323;-78
2021/03/29 05:35:32;;;;;;;28.83;26.92;;;7.90;67.80;;;;;;5092806;28;20703;-79
2021/03/29 05:37:58;;;;;;;26.80;25.17;;;7.90;68.70;;;;;;5093250;28;20669;-79
2021/03/29 05:40:25;;;;;;;27.55;25.92;;;8.00;68.10;;;;;;5093241;28;20272;-79
2021/03/29 05:42:52;;;;;;;25.83;24.13;;;8.10;67.00;;;;;;5093403;28;20198;-79
2021/03/29 05:45:19;;;;;;;29.77;27.13;;;8.20;66.20;;;;;;5093251;28;20195;-78
2021/03/29 05:47:46;;;;;;;26.20;24.63;;;8.20;66.00;;;;;;5092705;28;20313;-78
2021/03/29 05:50:14;;;;;;;26.30;24.70;;;8.30;65.80;;;;;;5093164;28;20680;-78
2021/03/29 05:52:41;;;;;;;25.38;23.67;;;8.40;65.40;;;;;;5093083;28;20196;-78
2021/03/29 05:55:12;;;;;;;28.00;26.30;;;8.50;65.60;;;;;;5092849;28;20199;-78
2021/03/29 05:57:43;;;;;;;26.33;24.75;;;8.60;64.80;;;;;;5092622;28;20203;-79
2021/03/29 06:00:38;;;;;;;26.98;25.08;;;8.60;64.60;;;;;;5092170;28;20215;-78
2021/03/29 06:03:26;;;;;;;30.02;28.25;;;8.80;63.90;;;;;;5076180;28;20202;-78
2021/03/29 06:05:54;;;;;;;25.80;24.05;;;8.70;64.20;;;;;;5094330;28;20251;-78
2021/03/29 06:08:20;;;;;;;27.42;25.65;;;8.70;64.40;;;;;;5092828;28;20605;-78
2021/03/29 06:10:50;;;;;;;26.60;24.90;;;8.80;64.80;;;;;;5092443;28;20679;-78
2021/03/29 06:13:18;;;;;;;27.85;26.05;;;8.80;64.10;;;;;;5092876;28;20281;-78
2021/03/29 06:15:46;;;;;;;26.50;24.73;;;8.80;64.20;;;;;;5092059;28;20282;-79
2021/03/29 06:18:14;;;;;;;28.75;26.70;;;8.90;64.10;;;;;;5092848;28;20204;-78
2021/03/29 06:21:00;;;;;;;28.10;26.40;;;9.00;63.80;;;;;;5092442;28;20306;-78
2021/03/29 06:23:27;;;;;;;27.35;25.45;;;9.20;64.40;;;;;;5092365;28;20622;-78
2021/03/29 06:26:17;;;;;;;29.42;27.40;;;9.20;65.80;;;;;;5092150;28;20206;-78
2021/03/29 06:28:44;;;;;;;28.70;26.38;;;9.50;63.90;;;;;;5092449;28;20285;-78
2021/03/29 06:31:29;;;;;;;28.67;26.65;;;9.70;63.20;;;;;;5092627;28;20222;-78
2021/03/29 06:33:57;;;;;;;27.13;25.15;;;9.80;63.00;;;;;;5092518;28;20278;-78
2021/03/29 06:36:35;;;;;;;27.83;25.98;;;9.90;63.00;;;;;;5091934;28;20207;-78
2021/03/29 06:39:16;;;;;;;27.65;25.95;;;9.90;63.20;;;;;;5092315;28;20301;-78
2021/03/29 06:41:51;;;;;;;27.70;25.90;;;10.00;67.40;;;;;;5092603;28;20648;-78
2021/03/29 06:44:25;;;;;;;25.88;24.25;;;10.00;67.00;;;;;;5092606;28;20628;-78
2021/03/29 06:47:07;;;;;;;26.10;24.50;;;10.20;62.90;;;;;;5091871;28;20732;-78
2021/03/29 06:49:45;;;;;;;27.67;25.92;;;10.20;63.20;;;;;;5092290;28;20247;-78
2021/03/29 06:52:26;;;;;;;27.60;25.60;;;10.40;62.50;;;;;;5092673;28;20203;-78
2021/03/29 06:54:54;;;;;;;27.70;26.13;;;10.60;65.50;;;;;;5092168;28;20802;-78
2021/03/29 06:57:28;;;;;;;28.00;25.50;;;10.80;63.50;;;;;;5091685;28;20200;-78
2021/03/29 06:59:55;;;;;;;27.70;26.00;;;10.90;61.90;;;;;;5091814;28;20466;-77
2021/03/29 07:02:40;;;;;;;27.20;25.40;;;11.00;60.50;;;;;;5092105;28;20827;-78
2021/03/29 07:05:08;;;;;;;27.13;25.33;;;11.30;59.80;;;;;;5091969;28;20501;-78
2021/03/29 07:07:36;;;;;;;28.63;26.40;;;11.50;58.80;;;;;;5091768;28;20445;-78
2021/03/29 07:10:05;;;;;;;28.80;26.50;;;11.70;58.30;;;;;;5092018;28;20477;-78
2021/03/29 07:12:37;;;;;;;27.70;25.83;;;11.80;58.00;;;;;;5093127;28;20503;-78
2021/03/29 07:15:06;;;;;;;29.63;27.10;;;11.90;57.80;;;;;;5096145;28;21091;-78
2021/03/29 07:17:37;;;;;;;30.37;27.27;;;12.00;57.90;;;;;;5101487;28;20445;-78
2021/03/29 07:20:06;;;;;;;28.73;26.93;;;11.90;62.80;;;;;;5098085;28;20590;-78
2021/03/29 07:22:36;;;;;;;31.50;29.27;;;11.90;61.40;;;;;;5095839;28;20445;-78
2021/03/29 07:25:04;;;;;;;28.00;26.30;;;12.00;59.10;;;;;;5095985;28;20449;-78
2021/03/29 07:27:35;;;;;;;27.73;25.93;;;12.20;58.00;;;;;;5095392;28;20455;-78
2021/03/29 07:30:02;;;;;;;28.30;26.57;;;12.40;56.70;;;;;;5095900;28;20583;-78
2021/03/29 07:32:30;;;;;;;29.90;27.60;;;12.40;57.10;;;;;;5095680;28;20822;-79
2021/03/29 07:34:58;;;;;;;28.43;26.27;;;12.50;56.80;;;;;;5095883;28;20467;-79
2021/03/29 07:37:27;;;;;;;28.53;26.50;;;12.70;56.30;;;;;;5095123;28;20444;-78
2021/03/29 07:39:54;;;;;;;27.57;25.60;;;12.70;56.10;;;;;;5095849;28;20469;-79
2021/03/29 07:42:40;;;;;;;29.07;26.77;;;12.80;55.90;;;;;;5095657;28;20461;-78
2021/03/29 07:45:10;;;;;;;30.47;28.67;;;13.00;55.50;;;;;;5095824;28;20464;-79
2021/03/29 07:47:46;;;;;;;30.63;28.30;;;13.30;54.80;;;;;;5095727;28;20453;-78
2021/03/29 07:50:18;;;;;;;28.03;26.07;;;13.40;54.60;;;;;;5095898;28;20487;-78
2021/03/29 07:52:49;;;;;;;28.67;26.80;;;13.50;54.40;;;;;;5095722;28;20576;-79
2021/03/29 07:55:21;;;;;;;29.17;27.27;;;13.60;53.90;;;;;;5095598;28;20489;-79
2021/03/29 07:58:04;;;;;;;28.67;26.77;;;13.80;53.40;;;;;;5096578;28;20803;-79
2021/03/29 08:00:42;;;;;;;28.00;26.00;;;13.90;53.00;;;;;;5102781;28;20530;-78
2021/03/29 08:03:47;;;;;;;30.37;28.33;;;14.00;52.60;;;;;;5095324;28;20448;-79
2021/03/29 08:06:37;;;;;;;30.57;28.50;;;14.20;52.40;;;;;;5094413;28;20453;-77
2021/03/29 08:09:04;;;;;;;30.07;28.47;;;14.30;52.10;;;;;;5094872;28;20469;-79
2021/03/29 08:12:05;;;;;;;29.20;27.10;;;14.40;51.70;;;;;;5094994;28;20479;-79
2021/03/29 08:14:42;;;;;;;28.07;26.07;;;14.50;51.00;;;;;;5095202;28;20784;-78
2021/03/29 08:17:54;;;;;;;27.63;25.93;;;14.60;50.80;;;;;;5094158;28;20501;-77
2021/03/29 08:20:34;;;;;;;29.67;27.17;;;14.80;50.00;;;;;;5095118;28;20547;-77
2021/03/29 08:23:30;;;;;;;28.07;26.17;;;14.90;49.60;;;;;;5094401;28;20448;-77
2021/03/29 08:26:10;;;;;;;26.90;25.20;;;15.00;49.50;;;;;;5094238;28;21025;-77
2021/03/29 08:29:28;;;;;;;27.80;26.00;;;15.10;48.70;;;;;;5094632;28;20455;-77
2021/03/29 08:32:18;;;;;;;27.93;26.00;;;15.20;48.60;;;;;;5094489;28;20560;-77
2021/03/29 08:34:53;;;;;;;28.20;26.20;;;15.10;48.70;;;;;;5094367;28;20954;-77
2021/03/29 08:37:26;;;;;;;26.97;25.37;;;15.10;48.80;;;;;;5093901;28;20463;-77
2021/03/29 08:39:54;;;;;;;28.97;27.07;;;15.20;48.60;;;;;;5094434;28;20891;-77
2021/03/29 08:42:23;;;;;;;28.57;25.77;;;15.40;48.20;;;;;;5094353;28;20453;-77
2021/03/29 08:44:51;;;;;;;27.70;25.67;;;15.40;48.10;;;;;;5094140;28;20452;-77
2021/03/29 08:47:19;;;;;;;28.60;26.70;;;15.50;47.80;;;;;;5093643;28;20456;-77
2021/03/29 08:49:48;;;;;;;26.63;24.87;;;15.70;47.50;;;;;;5094021;28;20488;-77
2021/03/29 08:52:15;;;;;;;26.50;24.90;;;15.80;46.60;;;;;;5094254;28;20445;-77
2021/03/29 08:54:56;;;;;;;26.30;24.60;;;15.80;46.30;;;;;;5094174;28;20513;-77
2021/03/29 08:57:25;;;;;;;27.93;26.00;;;16.00;46.40;;;;;;5093392;28;20536;-77
2021/03/29 08:59:53;;;;;;;27.50;25.67;;;16.10;46.50;;;;;;5093579;28;20563;-77
2021/03/29 09:02:20;;;;;;;27.40;25.50;;;16.20;46.40;;;;;;5093916;28;20958;-77
2021/03/29 09:04:54;;;;;;;28.10;26.20;;;16.30;46.10;;;;;;5093763;28;20525;-77
2021/03/29 09:07:27;;;;;;;26.20;24.60;;;16.40;46.10;;;;;;5093246;28;20499;-77
2021/03/29 09:09:54;;;;;;;27.53;25.33;;;16.50;46.10;;;;;;5093538;28;20530;-77
2021/03/29 09:12:23;;;;;;;26.97;25.17;;;16.60;45.80;;;;;;5093968;28;20864;-78
2021/03/29 09:14:49;;;;;;;26.70;25.10;;;16.60;45.70;;;;;;5093712;28;20522;-77
2021/03/29 09:17:39;;;;;;;26.97;24.77;;;16.70;45.50;;;;;;5093151;28;20459;-77
2021/03/29 09:20:18;;;;;;;25.33;23.83;;;16.70;45.30;;;;;;5093624;28;20468;-77
2021/03/29 09:22:46;;;;;;;27.90;25.57;;;16.90;44.70;;;;;;5093517;28;20453;-77
2021/03/29 09:25:21;;;;;;;26.27;24.30;;;16.90;44.40;;;;;;5093488;28;20807;-77
2021/03/29 09:28:06;;;;;;;26.33;24.63;;;16.90;44.00;;;;;;5093117;28;20977;-77
2021/03/29 09:30:33;;;;;;;26.33;24.30;;;16.90;44.00;;;;;;5093378;28;20481;-77
2021/03/29 09:32:59;;;;;;;25.70;24.10;;;17.00;43.90;;;;;;5093294;28;20455;-77
2021/03/29 09:35:26;;;;;;;26.90;25.20;;;17.10;43.70;;;;;;5092095;28;20456;-77
2021/03/29 09:37:52;;;;;;;25.60;24.17;;;17.10;43.20;;;;;;5093337;28;20456;-77
2021/03/29 09:40:20;;;;;;;25.67;24.00;;;17.10;42.90;;;;;;5093071;28;20512;-77
2021/03/29 09:42:48;;;;;;;25.87;24.13;;;17.10;42.80;;;;;;5093284;28;20457;-77
2021/03/29 09:45:21;;;;;;;25.87;24.10;;;17.20;42.50;;;;;;5093073;28;20861;-77
2021/03/29 09:48:02;;;;;;;26.40;24.40;;;17.30;42.60;;;;;;5092617;28;20453;-77
2021/03/29 09:50:30;;;;;;;24.90;23.30;;;17.30;42.70;;;;;;5093297;28;20506;-77
2021/03/29 09:53:11;;;;;;;27.10;25.20;;;17.30;42.70;;;;;;5092935;28;20461;-77
2021/03/29 09:55:48;;;;;;;26.37;24.50;;;17.30;42.60;;;;;;5092269;28;20536;-77
2021/03/29 09:58:23;;;;;;;26.87;25.10;;;17.50;42.50;;;;;;5092966;28;20460;-77
2021/03/29 10:00:51;;;;;;;27.47;25.50;;;17.40;41.70;;;;;;5092403;28;20495;-77
2021/03/29 10:03:18;;;;;;;25.67;23.87;;;17.50;41.70;;;;;;5093027;28;20994;-77
2021/03/29 10:05:46;;;;;;;26.60;24.90;;;17.50;41.50;;;;;;5092373;28;20513;-78
2021/03/29 10:08:23;;;;;;;28.60;26.53;;;17.40;41.40;;;;;;5092938;28;20517;-80
2021/03/29 10:11:00;;;;;;;26.90;25.20;;;17.40;41.20;;;;;;5093266;28;20553;-78
2021/03/29 10:13:32;;;;;;;28.07;26.13;;;17.50;40.70;;;;;;5093245;28;20503;-78
2021/03/29 10:16:16;;;;;;;26.20;24.20;;;17.60;41.00;;;;;;5092708;28;20465;-78
2021/03/29 10:18:43;;;;;;;28.00;25.70;;;17.70;41.00;;;;;;5093570;28;20511;-78
2021/03/29 10:21:09;;;;;;;27.33;25.43;;;17.70;41.40;;;;;;5092876;28;20453;-78
2021/03/29 10:23:41;;;;;;;29.87;28.47;;;17.80;41.00;;;;;;5092647;28;20452;-78
2021/03/29 10:26:28;;;;;;;26.53;24.83;;;17.90;40.00;;;;;;5091838;28;20807;-78
2021/03/29 10:29:00;;;;;;;26.03;24.53;;;18.10;38.90;;;;;;5092537;28;20516;-78
2021/03/29 10:31:28;;;;;;;26.20;24.70;;;18.20;37.70;;;;;;5092400;28;20567;-78
2021/03/29 10:33:56;;;;;;;26.40;24.80;;;18.20;37.60;;;;;;5092409;28;20818;-78
2021/03/29 10:36:23;;;;;;;25.40;24.00;;;18.20;37.60;;;;;;5091935;28;20514;-78
2021/03/29 10:38:51;;;;;;;26.13;24.43;;;18.30;37.00;;;;;;5092325;28;20449;-78
2021/03/29 10:41:18;;;;;;;27.27;25.57;;;18.30;36.90;;;;;;5092362;28;20586;-78
2021/03/29 10:43:46;;;;;;;26.87;25.17;;;18.30;35.70;;;;;;5092281;28;20452;-79
2021/03/29 10:46:13;;;;;;;27.10;25.50;;;18.10;35.90;;;;;;5092385;28;20449;-78
2021/03/29 10:48:39;;;;;;;26.47;24.97;;;18.00;36.10;;;;;;5096597;28;20513;-79
2021/03/29 10:51:07;;;;;;;26.80;24.90;;;18.00;36.20;;;;;;5096531;28;20477;-78
2021/03/29 10:53:34;;;;;;;26.30;24.40;;;18.10;36.60;;;;;;5096603;28;20457;-78
2021/03/29 10:56:01;;;;;;;27.70;25.90;;;18.30;38.20;;;;;;5095856;28;20445;-78
2021/03/29 10:58:27;;;;;;;28.10;26.20;;;18.30;39.50;;;;;;5098192;28;20456;-78
2021/03/29 11:00:55;;;;;;;26.67;25.10;;;18.40;39.00;;;;;;5102077;28;20472;-78
2021/03/29 11:03:21;;;;;;;28.27;25.53;;;18.50;38.20;;;;;;5097236;28;20810;-78
2021/03/29 11:05:47;;;;;;;26.87;24.87;;;18.50;37.80;;;;;;5096119;28;20537;-78
2021/03/29 11:08:15;;;;;;;26.30;24.70;;;18.50;37.90;;;;;;5098732;28;20452;-78
2021/03/29 11:10:42;;;;;;;27.63;25.70;;;18.60;35.80;;;;;;5098054;28;20477;-78
2021/03/29 11:13:08;;;;;;;27.50;25.70;;;18.80;35.80;;;;;;5096629;28;21010;-78
2021/03/29 11:15:34;;;;;;;26.77;25.10;;;19.00;35.30;;;;;;5095761;28;20457;-78
2021/03/29 11:18:04;;;;;;;27.00;25.40;;;19.00;35.10;;;;;;5096171;28;20557;-78
2021/03/29 11:20:30;;;;;;;25.60;24.00;;;19.20;34.90;;;;;;5095732;28;20614;-78
2021/03/29 11:22:57;;;;;;;26.30;24.57;;;19.30;34.80;;;;;;5096149;28;20453;-78
2021/03/29 11:25:23;;;;;;;27.73;25.63;;;19.30;34.60;;;;;;5095616;28;20457;-78
2021/03/29 11:27:49;;;;;;;25.50;24.10;;;19.30;34.60;;;;;;5095481;28;20457;-78
2021/03/29 11:30:17;;;;;;;26.63;24.83;;;19.30;34.20;;;;;;5095866;28;20479;-78
2021/03/29 11:32:43;;;;;;;25.70;24.20;;;19.30;34.50;;;;;;5095735;28;20449;-78
2021/03/29 11:35:12;;;;;;;26.97;25.27;;;19.40;34.70;;;;;;5095724;28;20488;-78
2021/03/29 11:37:39;;;;;;;26.57;25.00;;;19.40;34.40;;;;;;5095399;28;20453;-78
2021/03/29 11:40:06;;;;;;;30.43;28.80;;;19.50;34.10;;;;;;5095787;28;20465;-78
2021/03/29 11:42:33;;;;;;;27.40;25.60;;;19.60;34.30;;;;;;5095293;28;20453;-78
2021/03/29 11:44:59;;;;;;;27.17;25.30;;;19.70;33.90;;;;;;5095571;28;20543;-78
2021/03/29 11:47:25;;;;;;;27.73;25.90;;;19.90;33.60;;;;;;5094896;28;20460;-78
2021/03/29 11:49:52;;;;;;;28.27;26.73;;;20.00;33.50;;;;;;5095401;28;20460;-78
2021/03/29 11:52:19;;;;;;;26.60;24.70;;;20.00;33.50;;;;;;5095256;28;20453;-78
2021/03/29 11:54:46;;;;;;;25.53;23.93;;;20.00;33.20;;;;;;5095305;28;20445;-79
2021/03/29 11:57:12;;;;;;;26.50;24.70;;;20.00;33.50;;;;;;5094713;28;20550;-78
2021/03/29 11:59:45;;;;;;;26.57;25.07;;;20.10;33.50;;;;;;5094055;28;20563;-79
2021/03/29 12:02:15;;;;;;;26.20;24.60;;;20.20;33.40;;;;;;5095265;28;20946;-78
2021/03/29 12:04:46;;;;;;;26.67;24.97;;;20.30;33.30;;;;;;5094962;28;20452;-78
2021/03/29 12:07:16;;;;;;;26.00;24.37;;;20.30;33.40;;;;;;5094702;28;20453;-78
2021/03/29 12:09:49;;;;;;;27.43;25.83;;;20.50;33.50;;;;;;5094893;28;20473;-78
2021/03/29 12:12:15;;;;;;;25.43;23.93;;;20.40;33.60;;;;;;5095042;28;20980;-78
2021/03/29 12:14:42;;;;;;;29.07;27.50;;;20.40;33.60;;;;;;5094953;28;20567;-78
2021/03/29 12:17:13;;;;;;;25.20;23.80;;;20.40;33.20;;;;;;5094421;28;20449;-78
2021/03/29 12:19:42;;;;;;;27.57;25.80;;;20.50;33.20;;;;;;5094782;28;20534;-79
2021/03/29 12:22:11;;;;;;;26.47;24.87;;;20.50;33.30;;;;;;5094995;28;20449;-78
2021/03/29 12:24:41;;;;;;;26.67;25.17;;;20.50;33.20;;;;;;5094893;28;20814;-78
2021/03/29 12:27:10;;;;;;;26.83;24.90;;;20.60;33.10;;;;;;5094078;28;20449;-78
2021/03/29 12:29:38;;;;;;;26.50;25.07;;;20.70;32.90;;;;;;5094785;28;20473;-78
2021/03/29 12:32:06;;;;;;;25.33;24.03;;;20.60;33.10;;;;;;5094478;28;20567;-78
2021/03/29 12:34:34;;;;;;;26.73;25.10;;;20.60;32.70;;;;;;5094625;28;20544;-78
2021/03/29 12:37:02;;;;;;;25.73;24.33;;;20.50;33.10;;;;;;5093952;28;20464;-78
2021/03/29 12:39:33;;;;;;;28.67;27.00;;;20.40;33.40;;;;;;5094622;28;20469;-79
2021/03/29 12:42:02;;;;;;;26.47;24.67;;;20.50;33.50;;;;;;5094526;28;20741;-79
2021/03/29 12:44:32;;;;;;;26.80;25.00;;;20.50;33.00;;;;;;5094409;28;20460;-78
2021/03/29 12:46:59;;;;;;;26.97;25.10;;;20.70;32.70;;;;;;5093719;28;20981;-78